sensor_id;sensor_type;location;lat;lon;timestamp;P1;durP1;ratioP1;P2;durP2;ratioP2
19664;SDS011;9980;51.020;7.772;2023-02-28T00:01:23;6.47;;;5.97;;
19664;SDS011;9980;51.020;7.772;2023-02-28T00:03:52;6.47;;;6.00;;
19664;SDS011;9980;51.020;7.772;2023-02-28T00:06:20;6.00;;;5.60;;
19664;SDS011;9980;51.020;7.772;2023-02-28T00:08:47;5.60;;;5.30;;
19664;SDS011;9980;51.020;7.772;2023-02-28T00:11:14;5.77;;;5.37;;
19664;SDS011;9980;51.020;7.772;2023-02-28T00:13:43;5.93;;;5.53;;
19664;SDS011;9980;51.020;7.772;2023-02-28T00:16:17;6.37;;;5.97;;
19664;SDS011;9980;51.020;7.772;2023-02-28T00:18:46;6.23;;;5.73;;
19664;SDS011;9980;51.020;7.772;2023-02-28T00:21:14;5.87;;;5.57;;
19664;SDS011;9980;51.020;7.772;2023-02-28T00:23:43;5.57;;;5.27;;
19664;SDS011;9980;51.020;7.772;2023-02-28T00:26:10;6.77;;;6.30;;
19664;SDS011;9980;51.020;7.772;2023-02-28T00:28:39;5.70;;;5.40;;
19664;SDS011;9980;51.020;7.772;2023-02-28T00:31:06;6.20;;;5.70;;
19664;SDS011;9980;51.020;7.772;2023-02-28T00:33:34;6.47;;;6.07;;
19664;SDS011;9980;51.020;7.772;2023-02-28T00:36:05;6.67;;;6.20;;
19664;SDS011;9980;51.020;7.772;2023-02-28T00:38:35;6.13;;;5.77;;
19664;SDS011;9980;51.020;7.772;2023-02-28T00:41:03;6.57;;;6.10;;
19664;SDS011;9980;51.020;7.772;2023-02-28T00:43:35;6.30;;;5.80;;
19664;SDS011;9980;51.020;7.772;2023-02-28T00:46:04;6.20;;;5.80;;
19664;SDS011;9980;51.020;7.772;2023-02-28T00:48:32;6.57;;;6.07;;
19664;SDS011;9980;51.020;7.772;2023-02-28T00:50:59;6.90;;;6.47;;
19664;SDS011;9980;51.020;7.772;2023-02-28T00:53:27;6.43;;;6.03;;
19664;SDS011;9980;51.020;7.772;2023-02-28T00:55:56;6.23;;;5.90;;
19664;SDS011;9980;51.020;7.772;2023-02-28T00:58:24;6.47;;;6.07;;
19664;SDS011;9980;51.020;7.772;2023-02-28T01:00:52;5.90;;;5.60;;
19664;SDS011;9980;51.020;7.772;2023-02-28T01:03:20;6.70;;;6.30;;
19664;SDS011;9980;51.020;7.772;2023-02-28T01:05:48;6.47;;;6.07;;
19664;SDS011;9980;51.020;7.772;2023-02-28T01:08:16;6.77;;;6.27;;
19664;SDS011;9980;51.020;7.772;2023-02-28T01:10:43;6.17;;;5.80;;
19664;SDS011;9980;51.020;7.772;2023-02-28T01:13:10;6.50;;;6.10;;
19664;SDS011;9980;51.020;7.772;2023-02-28T01:15:39;6.27;;;5.70;;
19664;SDS011;9980;51.020;7.772;2023-02-28T01:18:11;6.10;;;5.60;;
19664;SDS011;9980;51.020;7.772;2023-02-28T01:20:38;6.27;;;5.70;;
19664;SDS011;9980;51.020;7.772;2023-02-28T01:23:05;6.13;;;5.83;;
19664;SDS011;9980;51.020;7.772;2023-02-28T01:25:36;5.80;;;5.40;;
19664;SDS011;9980;51.020;7.772;2023-02-28T01:28:04;6.60;;;6.07;;
19664;SDS011;9980;51.020;7.772;2023-02-28T01:30:32;6.00;;;5.57;;
19664;SDS011;9980;51.020;7.772;2023-02-28T01:33:00;6.30;;;5.90;;
19664;SDS011;9980;51.020;7.772;2023-02-28T01:35:27;6.77;;;6.37;;
19664;SDS011;9980;51.020;7.772;2023-02-28T01:37:54;6.50;;;6.10;;
19664;SDS011;9980;51.020;7.772;2023-02-28T01:40:21;6.63;;;6.23;;
19664;SDS011;9980;51.020;7.772;2023-02-28T01:42:48;6.13;;;5.73;;
19664;SDS011;9980;51.020;7.772;2023-02-28T01:45:26;6.57;;;6.07;;
19664;SDS011;9980;51.020;7.772;2023-02-28T01:47:58;6.60;;;6.20;;
19664;SDS011;9980;51.020;7.772;2023-02-28T01:50:31;6.33;;;5.93;;
19664;SDS011;9980;51.020;7.772;2023-02-28T01:53:08;6.40;;;6.00;;
19664;SDS011;9980;51.020;7.772;2023-02-28T01:55:45;6.77;;;6.23;;
19664;SDS011;9980;51.020;7.772;2023-02-28T01:58:19;6.97;;;6.57;;
19664;SDS011;9980;51.020;7.772;2023-02-28T02:00:47;6.40;;;6.00;;
19664;SDS011;9980;51.020;7.772;2023-02-28T02:03:14;6.47;;;6.17;;
19664;SDS011;9980;51.020;7.772;2023-02-28T02:05:45;7.07;;;6.67;;
19664;SDS011;9980;51.020;7.772;2023-02-28T02:08:17;5.70;;;5.40;;
19664;SDS011;9980;51.020;7.772;2023-02-28T02:10:54;6.33;;;5.93;;
19664;SDS011;9980;51.020;7.772;2023-02-28T02:13:27;6.83;;;6.23;;
19664;SDS011;9980;51.020;7.772;2023-02-28T02:27:48;6.50;;;6.10;;
19664;SDS011;9980;51.020;7.772;2023-02-28T02:39:43;6.70;;;6.10;;
19664;SDS011;9980;51.020;7.772;2023-02-28T02:42:27;6.80;;;6.40;;
19664;SDS011;9980;51.020;7.772;2023-02-28T02:45:11;6.40;;;6.00;;
19664;SDS011;9980;51.020;7.772;2023-02-28T02:47:53;6.30;;;5.97;;
19664;SDS011;9980;51.020;7.772;2023-02-28T02:50:33;6.27;;;5.97;;
19664;SDS011;9980;51.020;7.772;2023-02-28T02:53:10;6.90;;;6.50;;
19664;SDS011;9980;51.020;7.772;2023-02-28T02:55:40;7.37;;;6.90;;
19664;SDS011;9980;51.020;7.772;2023-02-28T02:58:14;6.80;;;6.40;;
19664;SDS011;9980;51.020;7.772;2023-02-28T03:00:47;6.83;;;6.33;;
19664;SDS011;9980;51.020;7.772;2023-02-28T03:03:20;7.00;;;6.60;;
19664;SDS011;9980;51.020;7.772;2023-02-28T03:05:58;6.90;;;6.50;;
19664;SDS011;9980;51.020;7.772;2023-02-28T03:08:28;7.30;;;6.80;;
19664;SDS011;9980;51.020;7.772;2023-02-28T03:11:02;6.80;;;6.30;;
19664;SDS011;9980;51.020;7.772;2023-02-28T03:14:34;6.83;;;6.43;;
19664;SDS011;9980;51.020;7.772;2023-02-28T03:16:55;6.70;;;6.40;;
19664;SDS011;9980;51.020;7.772;2023-02-28T03:23:02;7.47;;;7.07;;
19664;SDS011;9980;51.020;7.772;2023-02-28T03:26:02;6.77;;;6.47;;
19664;SDS011;9980;51.020;7.772;2023-02-28T03:28:49;6.80;;;6.37;;
19664;SDS011;9980;51.020;7.772;2023-02-28T03:31:33;6.63;;;6.23;;
19664;SDS011;9980;51.020;7.772;2023-02-28T03:34:11;7.03;;;6.43;;
19664;SDS011;9980;51.020;7.772;2023-02-28T03:36:48;7.30;;;6.90;;
19664;SDS011;9980;51.020;7.772;2023-02-28T03:39:34;7.00;;;6.60;;
19664;SDS011;9980;51.020;7.772;2023-02-28T03:42:15;6.43;;;6.13;;
19664;SDS011;9980;51.020;7.772;2023-02-28T03:44:50;7.00;;;6.60;;
19664;SDS011;9980;51.020;7.772;2023-02-28T03:47:45;7.00;;;6.70;;
19664;SDS011;9980;51.020;7.772;2023-02-28T03:50:35;7.20;;;6.80;;
19664;SDS011;9980;51.020;7.772;2023-02-28T03:55:47;7.17;;;6.70;;
19664;SDS011;9980;51.020;7.772;2023-02-28T03:58:29;6.70;;;6.30;;
19664;SDS011;9980;51.020;7.772;2023-02-28T04:01:09;6.90;;;6.50;;
19664;SDS011;9980;51.020;7.772;2023-02-28T04:03:40;7.00;;;6.50;;
19664;SDS011;9980;51.020;7.772;2023-02-28T04:06:08;6.90;;;6.40;;
19664;SDS011;9980;51.020;7.772;2023-02-28T04:08:44;7.10;;;6.70;;
19664;SDS011;9980;51.020;7.772;2023-02-28T04:11:18;7.47;;;6.87;;
19664;SDS011;9980;51.020;7.772;2023-02-28T04:14:01;6.67;;;6.30;;
19664;SDS011;9980;51.020;7.772;2023-02-28T04:16:30;7.57;;;7.17;;
19664;SDS011;9980;51.020;7.772;2023-02-28T04:19:04;8.63;;;8.03;;
19664;SDS011;9980;51.020;7.772;2023-02-28T04:21:35;9.43;;;8.70;;
19664;SDS011;9980;51.020;7.772;2023-02-28T04:24:09;8.40;;;7.80;;
19664;SDS011;9980;51.020;7.772;2023-02-28T04:26:43;7.13;;;6.63;;
19664;SDS011;9980;51.020;7.772;2023-02-28T04:29:14;6.93;;;6.50;;
19664;SDS011;9980;51.020;7.772;2023-02-28T04:31:46;6.80;;;6.40;;
19664;SDS011;9980;51.020;7.772;2023-02-28T04:34:13;8.23;;;7.63;;
19664;SDS011;9980;51.020;7.772;2023-02-28T04:36:41;8.10;;;7.50;;
19664;SDS011;9980;51.020;7.772;2023-02-28T04:39:08;12.57;;;11.07;;
19664;SDS011;9980;51.020;7.772;2023-02-28T04:41:35;12.07;;;10.60;;
19664;SDS011;9980;51.020;7.772;2023-02-28T04:44:02;11.50;;;9.90;;
19664;SDS011;9980;51.020;7.772;2023-02-28T04:46:30;12.07;;;10.23;;
19664;SDS011;9980;51.020;7.772;2023-02-28T04:48:57;10.20;;;9.20;;
19664;SDS011;9980;51.020;7.772;2023-02-28T04:51:25;9.00;;;8.27;;
19664;SDS011;9980;51.020;7.772;2023-02-28T04:53:52;8.53;;;7.83;;
19664;SDS011;9980;51.020;7.772;2023-02-28T04:56:19;8.50;;;7.80;;
19664;SDS011;9980;51.020;7.772;2023-02-28T04:58:46;9.17;;;8.37;;
19664;SDS011;9980;51.020;7.772;2023-02-28T05:01:18;8.63;;;8.00;;
19664;SDS011;9980;51.020;7.772;2023-02-28T05:03:52;7.13;;;6.50;;
19664;SDS011;9980;51.020;7.772;2023-02-28T05:06:22;8.83;;;8.13;;
19664;SDS011;9980;51.020;7.772;2023-02-28T05:08:52;8.23;;;7.63;;
19664;SDS011;9980;51.020;7.772;2023-02-28T05:11:24;8.53;;;7.87;;
19664;SDS011;9980;51.020;7.772;2023-02-28T05:13:56;8.60;;;7.77;;
19664;SDS011;9980;51.020;7.772;2023-02-28T05:16:23;11.93;;;10.77;;
19664;SDS011;9980;51.020;7.772;2023-02-28T05:18:50;14.57;;;13.07;;
19664;SDS011;9980;51.020;7.772;2023-02-28T05:21:21;16.33;;;13.17;;
19664;SDS011;9980;51.020;7.772;2023-02-28T05:23:55;14.07;;;12.67;;
19664;SDS011;9980;51.020;7.772;2023-02-28T05:26:25;11.87;;;10.70;;
19664;SDS011;9980;51.020;7.772;2023-02-28T05:28:53;13.23;;;10.23;;
19664;SDS011;9980;51.020;7.772;2023-02-28T05:31:21;9.67;;;8.77;;
19664;SDS011;9980;51.020;7.772;2023-02-28T05:33:48;9.07;;;8.37;;
19664;SDS011;9980;51.020;7.772;2023-02-28T05:36:16;8.77;;;8.17;;
19664;SDS011;9980;51.020;7.772;2023-02-28T05:38:45;8.77;;;8.17;;
19664;SDS011;9980;51.020;7.772;2023-02-28T05:41:16;7.43;;;7.03;;
19664;SDS011;9980;51.020;7.772;2023-02-28T05:43:46;7.83;;;7.23;;
19664;SDS011;9980;51.020;7.772;2023-02-28T05:46:14;7.67;;;7.17;;
19664;SDS011;9980;51.020;7.772;2023-02-28T05:48:41;7.57;;;7.07;;
19664;SDS011;9980;51.020;7.772;2023-02-28T05:51:13;7.97;;;7.47;;
19664;SDS011;9980;51.020;7.772;2023-02-28T05:53:40;7.90;;;7.30;;
19664;SDS011;9980;51.020;7.772;2023-02-28T05:56:07;7.63;;;7.23;;
19664;SDS011;9980;51.020;7.772;2023-02-28T05:58:34;8.00;;;7.17;;
19664;SDS011;9980;51.020;7.772;2023-02-28T06:01:18;7.63;;;7.10;;
19664;SDS011;9980;51.020;7.772;2023-02-28T06:03:58;7.70;;;7.17;;
19664;SDS011;9980;51.020;7.772;2023-02-28T06:06:26;7.77;;;7.27;;
19664;SDS011;9980;51.020;7.772;2023-02-28T06:08:54;8.13;;;7.73;;
19664;SDS011;9980;51.020;7.772;2023-02-28T06:11:21;7.47;;;6.97;;
19664;SDS011;9980;51.020;7.772;2023-02-28T06:13:54;8.00;;;7.50;;
19664;SDS011;9980;51.020;7.772;2023-02-28T06:16:23;7.60;;;7.20;;
19664;SDS011;9980;51.020;7.772;2023-02-28T06:18:51;8.20;;;7.60;;
19664;SDS011;9980;51.020;7.772;2023-02-28T06:21:18;8.43;;;7.77;;
19664;SDS011;9980;51.020;7.772;2023-02-28T06:23:45;7.83;;;7.33;;
19664;SDS011;9980;51.020;7.772;2023-02-28T06:26:12;7.80;;;7.40;;
19664;SDS011;9980;51.020;7.772;2023-02-28T06:28:39;8.23;;;7.60;;
19664;SDS011;9980;51.020;7.772;2023-02-28T06:31:10;7.73;;;7.33;;
19664;SDS011;9980;51.020;7.772;2023-02-28T06:33:40;7.93;;;7.40;;
19664;SDS011;9980;51.020;7.772;2023-02-28T06:36:09;7.73;;;7.23;;
19664;SDS011;9980;51.020;7.772;2023-02-28T06:38:38;7.97;;;7.43;;
19664;SDS011;9980;51.020;7.772;2023-02-28T06:41:07;8.40;;;7.90;;
19664;SDS011;9980;51.020;7.772;2023-02-28T06:43:36;8.00;;;7.50;;
19664;SDS011;9980;51.020;7.772;2023-02-28T06:46:08;7.87;;;7.40;;
19664;SDS011;9980;51.020;7.772;2023-02-28T06:48:40;8.10;;;7.47;;
19664;SDS011;9980;51.020;7.772;2023-02-28T06:51:10;8.40;;;7.70;;
19664;SDS011;9980;51.020;7.772;2023-02-28T06:53:40;7.50;;;7.10;;
19664;SDS011;9980;51.020;7.772;2023-02-28T06:56:09;8.03;;;7.53;;
19664;SDS011;9980;51.020;7.772;2023-02-28T06:58:39;7.73;;;7.23;;
19664;SDS011;9980;51.020;7.772;2023-02-28T07:01:07;8.37;;;7.87;;
19664;SDS011;9980;51.020;7.772;2023-02-28T07:03:35;8.47;;;7.97;;
19664;SDS011;9980;51.020;7.772;2023-02-28T07:06:02;8.70;;;8.10;;
19664;SDS011;9980;51.020;7.772;2023-02-28T07:08:31;8.60;;;7.90;;
19664;SDS011;9980;51.020;7.772;2023-02-28T07:10:57;8.77;;;8.07;;
19664;SDS011;9980;51.020;7.772;2023-02-28T07:13:25;9.10;;;8.50;;
19664;SDS011;9980;51.020;7.772;2023-02-28T07:18:31;8.00;;;7.40;;
19664;SDS011;9980;51.020;7.772;2023-02-28T07:21:01;8.23;;;7.73;;
19664;SDS011;9980;51.020;7.772;2023-02-28T07:23:30;10.10;;;9.23;;
19664;SDS011;9980;51.020;7.772;2023-02-28T07:25:57;10.10;;;9.20;;
19664;SDS011;9980;51.020;7.772;2023-02-28T07:28:24;17.80;;;11.40;;
19664;SDS011;9980;51.020;7.772;2023-02-28T07:30:51;24.63;;;16.83;;
19664;SDS011;9980;51.020;7.772;2023-02-28T07:33:18;13.67;;;12.17;;
19664;SDS011;9980;51.020;7.772;2023-02-28T07:35:45;11.90;;;10.70;;
19664;SDS011;9980;51.020;7.772;2023-02-28T07:38:12;10.13;;;9.23;;
19664;SDS011;9980;51.020;7.772;2023-02-28T07:40:40;10.90;;;9.97;;
19664;SDS011;9980;51.020;7.772;2023-02-28T07:43:07;11.27;;;10.23;;
19664;SDS011;9980;51.020;7.772;2023-02-28T07:45:33;9.17;;;8.43;;
19664;SDS011;9980;51.020;7.772;2023-02-28T07:48:01;8.97;;;8.23;;
19664;SDS011;9980;51.020;7.772;2023-02-28T07:50:28;9.67;;;8.87;;
19664;SDS011;9980;51.020;7.772;2023-02-28T07:52:58;8.70;;;8.20;;
19664;SDS011;9980;51.020;7.772;2023-02-28T07:55:25;8.10;;;7.30;;
19664;SDS011;9980;51.020;7.772;2023-02-28T07:57:54;6.87;;;6.43;;
19664;SDS011;9980;51.020;7.772;2023-02-28T08:00:23;7.60;;;7.00;;
19664;SDS011;9980;51.020;7.772;2023-02-28T08:02:50;7.03;;;6.53;;
19664;SDS011;9980;51.020;7.772;2023-02-28T08:05:17;6.73;;;6.23;;
19664;SDS011;9980;51.020;7.772;2023-02-28T08:07:48;7.07;;;6.67;;
19664;SDS011;9980;51.020;7.772;2023-02-28T08:10:15;7.80;;;7.20;;
19664;SDS011;9980;51.020;7.772;2023-02-28T08:12:42;8.00;;;7.30;;
19664;SDS011;9980;51.020;7.772;2023-02-28T08:15:10;7.30;;;6.80;;
19664;SDS011;9980;51.020;7.772;2023-02-28T08:17:37;7.13;;;6.73;;
19664;SDS011;9980;51.020;7.772;2023-02-28T08:20:04;9.70;;;8.90;;
19664;SDS011;9980;51.020;7.772;2023-02-28T08:22:32;6.67;;;6.27;;
19664;SDS011;9980;51.020;7.772;2023-02-28T08:24:59;7.77;;;7.00;;
19664;SDS011;9980;51.020;7.772;2023-02-28T08:27:26;7.37;;;6.87;;
19664;SDS011;9980;51.020;7.772;2023-02-28T08:29:53;7.47;;;6.97;;
19664;SDS011;9980;51.020;7.772;2023-02-28T08:32:19;6.40;;;6.07;;
19664;SDS011;9980;51.020;7.772;2023-02-28T08:34:55;7.43;;;6.90;;
19664;SDS011;9980;51.020;7.772;2023-02-28T08:37:22;6.80;;;6.40;;
19664;SDS011;9980;51.020;7.772;2023-02-28T08:39:50;7.17;;;6.67;;
19664;SDS011;9980;51.020;7.772;2023-02-28T08:42:21;6.93;;;6.43;;
19664;SDS011;9980;51.020;7.772;2023-02-28T08:44:48;7.30;;;6.80;;
19664;SDS011;9980;51.020;7.772;2023-02-28T08:47:19;6.30;;;5.90;;
19664;SDS011;9980;51.020;7.772;2023-02-28T08:49:45;6.63;;;6.10;;
19664;SDS011;9980;51.020;7.772;2023-02-28T08:52:12;6.97;;;6.47;;
19664;SDS011;9980;51.020;7.772;2023-02-28T08:54:39;7.33;;;6.73;;
19664;SDS011;9980;51.020;7.772;2023-02-28T08:57:06;6.50;;;6.10;;
19664;SDS011;9980;51.020;7.772;2023-02-28T08:59:34;9.47;;;8.57;;
19664;SDS011;9980;51.020;7.772;2023-02-28T09:02:01;9.47;;;8.57;;
19664;SDS011;9980;51.020;7.772;2023-02-28T09:04:29;7.80;;;7.00;;
19664;SDS011;9980;51.020;7.772;2023-02-28T09:06:57;8.23;;;7.63;;
19664;SDS011;9980;51.020;7.772;2023-02-28T09:09:24;8.57;;;7.87;;
19664;SDS011;9980;51.020;7.772;2023-02-28T09:11:51;7.83;;;7.20;;
19664;SDS011;9980;51.020;7.772;2023-02-28T09:14:18;7.97;;;7.37;;
19664;SDS011;9980;51.020;7.772;2023-02-28T09:16:45;7.40;;;6.80;;
19664;SDS011;9980;51.020;7.772;2023-02-28T09:19:12;7.17;;;6.67;;
19664;SDS011;9980;51.020;7.772;2023-02-28T09:21:41;6.80;;;6.30;;
19664;SDS011;9980;51.020;7.772;2023-02-28T09:24:08;7.00;;;6.40;;
19664;SDS011;9980;51.020;7.772;2023-02-28T09:26:36;6.43;;;5.93;;
19664;SDS011;9980;51.020;7.772;2023-02-28T09:29:12;6.23;;;5.70;;
19664;SDS011;9980;51.020;7.772;2023-02-28T09:31:40;5.90;;;5.40;;
19664;SDS011;9980;51.020;7.772;2023-02-28T09:34:07;6.30;;;5.70;;
19664;SDS011;9980;51.020;7.772;2023-02-28T09:36:36;6.10;;;5.60;;
19664;SDS011;9980;51.020;7.772;2023-02-28T09:39:14;5.97;;;5.47;;
19664;SDS011;9980;51.020;7.772;2023-02-28T09:41:43;5.43;;;5.10;;
19664;SDS011;9980;51.020;7.772;2023-02-28T09:44:28;6.57;;;5.97;;
19664;SDS011;9980;51.020;7.772;2023-02-28T09:56:08;5.63;;;5.23;;
19664;SDS011;9980;51.020;7.772;2023-02-28T09:58:51;5.40;;;5.10;;
19664;SDS011;9980;51.020;7.772;2023-02-28T10:04:22;5.40;;;5.03;;
19664;SDS011;9980;51.020;7.772;2023-02-28T10:07:21;6.10;;;5.60;;
19664;SDS011;9980;51.020;7.772;2023-02-28T10:10:27;6.63;;;4.90;;
19664;SDS011;9980;51.020;7.772;2023-02-28T10:13:12;5.77;;;5.27;;
19664;SDS011;9980;51.020;7.772;2023-02-28T10:16:10;5.40;;;5.00;;
19664;SDS011;9980;51.020;7.772;2023-02-28T10:18:46;7.60;;;5.70;;
19664;SDS011;9980;51.020;7.772;2023-02-28T10:21:36;5.30;;;4.83;;
19664;SDS011;9980;51.020;7.772;2023-02-28T10:24:16;5.27;;;4.87;;
19664;SDS011;9980;51.020;7.772;2023-02-28T10:27:13;5.87;;;5.47;;
19664;SDS011;9980;51.020;7.772;2023-02-28T10:29:51;5.83;;;5.43;;
19664;SDS011;9980;51.020;7.772;2023-02-28T10:32:22;5.43;;;5.03;;
19664;SDS011;9980;51.020;7.772;2023-02-28T10:37:39;5.63;;;5.23;;
19664;SDS011;9980;51.020;7.772;2023-02-28T10:40:24;6.90;;;4.93;;
19664;SDS011;9980;51.020;7.772;2023-02-28T10:49:03;6.17;;;5.50;;
19664;SDS011;9980;51.020;7.772;2023-02-28T10:51:39;5.93;;;5.43;;
19664;SDS011;9980;51.020;7.772;2023-02-28T10:54:22;5.80;;;5.40;;
19664;SDS011;9980;51.020;7.772;2023-02-28T10:59:51;5.27;;;4.87;;
19664;SDS011;9980;51.020;7.772;2023-02-28T11:05:26;5.17;;;4.83;;
19664;SDS011;9980;51.020;7.772;2023-02-28T11:08:16;5.20;;;4.90;;
19664;SDS011;9980;51.020;7.772;2023-02-28T11:10:48;5.57;;;5.17;;
19664;SDS011;9980;51.020;7.772;2023-02-28T11:13:28;5.70;;;5.30;;
19664;SDS011;9980;51.020;7.772;2023-02-28T11:16:03;5.67;;;5.20;;
19664;SDS011;9980;51.020;7.772;2023-02-28T11:21:23;5.50;;;5.20;;
19664;SDS011;9980;51.020;7.772;2023-02-28T11:24:01;5.93;;;5.43;;
19664;SDS011;9980;51.020;7.772;2023-02-28T11:26:54;5.07;;;4.67;;
19664;SDS011;9980;51.020;7.772;2023-02-28T11:29:23;6.47;;;4.90;;
19664;SDS011;9980;51.020;7.772;2023-02-28T11:32:18;6.10;;;5.70;;
19664;SDS011;9980;51.020;7.772;2023-02-28T11:35:31;5.67;;;5.23;;
19664;SDS011;9980;51.020;7.772;2023-02-28T11:37:46;6.00;;;5.50;;
19664;SDS011;9980;51.020;7.772;2023-02-28T11:40:13;6.40;;;5.90;;
19664;SDS011;9980;51.020;7.772;2023-02-28T11:51:47;6.23;;;5.73;;
19664;SDS011;9980;51.020;7.772;2023-02-28T11:57:19;5.70;;;5.20;;
19664;SDS011;9980;51.020;7.772;2023-02-28T12:00:19;5.87;;;5.47;;
19664;SDS011;9980;51.020;7.772;2023-02-28T12:12:40;6.03;;;5.43;;
19664;SDS011;9980;51.020;7.772;2023-02-28T12:15:37;6.40;;;5.90;;
19664;SDS011;9980;51.020;7.772;2023-02-28T12:18:40;5.80;;;5.40;;
19664;SDS011;9980;51.020;7.772;2023-02-28T12:24:44;6.00;;;5.60;;
19664;SDS011;9980;51.020;7.772;2023-02-28T12:27:27;6.03;;;5.63;;
19664;SDS011;9980;51.020;7.772;2023-02-28T12:30:04;7.37;;;6.70;;
19664;SDS011;9980;51.020;7.772;2023-02-28T12:33:12;6.37;;;5.87;;
19664;SDS011;9980;51.020;7.772;2023-02-28T12:35:49;7.50;;;6.47;;
19664;SDS011;9980;51.020;7.772;2023-02-28T12:40:55;6.37;;;5.77;;
19664;SDS011;9980;51.020;7.772;2023-02-28T12:43:34;6.60;;;5.97;;
19664;SDS011;9980;51.020;7.772;2023-02-28T12:49:02;6.70;;;6.20;;
19664;SDS011;9980;51.020;7.772;2023-02-28T12:51:36;6.30;;;5.80;;
19664;SDS011;9980;51.020;7.772;2023-02-28T12:54:08;6.17;;;5.57;;
19664;SDS011;9980;51.020;7.772;2023-02-28T12:59:43;6.43;;;5.93;;
19664;SDS011;9980;51.020;7.772;2023-02-28T13:11:32;5.67;;;5.17;;
19664;SDS011;9980;51.020;7.772;2023-02-28T13:14:14;8.70;;;7.80;;
19664;SDS011;9980;51.020;7.772;2023-02-28T13:16:51;7.47;;;6.77;;
19664;SDS011;9980;51.020;7.772;2023-02-28T13:19:29;6.87;;;6.27;;
19664;SDS011;9980;51.020;7.772;2023-02-28T13:21:59;10.43;;;9.33;;
19664;SDS011;9980;51.020;7.772;2023-02-28T13:29:50;8.90;;;8.00;;
19664;SDS011;9980;51.020;7.772;2023-02-28T13:32:27;10.83;;;9.53;;
19664;SDS011;9980;51.020;7.772;2023-02-28T13:39:56;8.70;;;8.00;;
19664;SDS011;9980;51.020;7.772;2023-02-28T13:42:49;6.67;;;6.07;;
19664;SDS011;9980;51.020;7.772;2023-02-28T13:45:20;8.63;;;7.87;;
19664;SDS011;9980;51.020;7.772;2023-02-28T13:48:02;10.30;;;9.10;;
19664;SDS011;9980;51.020;7.772;2023-02-28T13:50:51;11.57;;;10.33;;
19664;SDS011;9980;51.020;7.772;2023-02-28T13:53:26;6.60;;;6.00;;
19664;SDS011;9980;51.020;7.772;2023-02-28T13:56:35;5.63;;;5.23;;
19664;SDS011;9980;51.020;7.772;2023-02-28T14:05:14;6.83;;;6.23;;
19664;SDS011;9980;51.020;7.772;2023-02-28T14:07:49;10.67;;;9.53;;
19664;SDS011;9980;51.020;7.772;2023-02-28T14:10:33;6.23;;;5.53;;
19664;SDS011;9980;51.020;7.772;2023-02-28T14:13:13;10.27;;;9.27;;
19664;SDS011;9980;51.020;7.772;2023-02-28T14:16:05;8.53;;;7.83;;
19664;SDS011;9980;51.020;7.772;2023-02-28T14:18:35;7.27;;;6.67;;
19664;SDS011;9980;51.020;7.772;2023-02-28T14:27:03;6.50;;;5.90;;
19664;SDS011;9980;51.020;7.772;2023-02-28T14:38:43;7.20;;;6.50;;
19664;SDS011;9980;51.020;7.772;2023-02-28T14:41:23;5.70;;;5.30;;
19664;SDS011;9980;51.020;7.772;2023-02-28T14:44:03;5.40;;;4.90;;
19664;SDS011;9980;51.020;7.772;2023-02-28T14:46:46;5.60;;;5.13;;
19664;SDS011;9980;51.020;7.772;2023-02-28T14:49:19;6.03;;;5.00;;
19664;SDS011;9980;51.020;7.772;2023-02-28T14:51:49;5.60;;;5.20;;
19664;SDS011;9980;51.020;7.772;2023-02-28T14:54:29;5.40;;;5.00;;
19664;SDS011;9980;51.020;7.772;2023-02-28T14:56:56;5.00;;;4.60;;
19664;SDS011;9980;51.020;7.772;2023-02-28T14:59:25;5.23;;;4.80;;
19664;SDS011;9980;51.020;7.772;2023-02-28T15:04:52;6.30;;;5.70;;
19664;SDS011;9980;51.020;7.772;2023-02-28T15:07:25;6.27;;;5.40;;
19664;SDS011;9980;51.020;7.772;2023-02-28T15:12:37;5.93;;;5.33;;
19664;SDS011;9980;51.020;7.772;2023-02-28T15:15:19;6.23;;;5.67;;
19664;SDS011;9980;51.020;7.772;2023-02-28T15:18:01;7.80;;;5.50;;
19664;SDS011;9980;51.020;7.772;2023-02-28T15:20:32;5.37;;;4.97;;
19664;SDS011;9980;51.020;7.772;2023-02-28T15:23:01;5.37;;;4.87;;
19664;SDS011;9980;51.020;7.772;2023-02-28T15:25:28;6.13;;;5.63;;
19664;SDS011;9980;51.020;7.772;2023-02-28T15:27:56;5.90;;;5.40;;
19664;SDS011;9980;51.020;7.772;2023-02-28T15:30:27;5.93;;;5.53;;
19664;SDS011;9980;51.020;7.772;2023-02-28T15:33:16;6.00;;;5.43;;
19664;SDS011;9980;51.020;7.772;2023-02-28T15:36:15;5.40;;;4.90;;
19664;SDS011;9980;51.020;7.772;2023-02-28T15:38:52;5.50;;;5.00;;
19664;SDS011;9980;51.020;7.772;2023-02-28T15:41:24;5.33;;;4.83;;
19664;SDS011;9980;51.020;7.772;2023-02-28T15:47:06;5.87;;;5.37;;
19664;SDS011;9980;51.020;7.772;2023-02-28T15:49:48;5.87;;;5.47;;
19664;SDS011;9980;51.020;7.772;2023-02-28T15:52:25;8.87;;;5.43;;
19664;SDS011;9980;51.020;7.772;2023-02-28T15:57:48;6.30;;;5.73;;
19664;SDS011;9980;51.020;7.772;2023-02-28T16:00:25;6.83;;;5.30;;
19664;SDS011;9980;51.020;7.772;2023-02-28T16:02:54;5.87;;;5.37;;
19664;SDS011;9980;51.020;7.772;2023-02-28T16:08:00;6.40;;;5.90;;
19664;SDS011;9980;51.020;7.772;2023-02-28T16:10:39;6.30;;;5.80;;
19664;SDS011;9980;51.020;7.772;2023-02-28T16:13:08;6.57;;;5.97;;
19664;SDS011;9980;51.020;7.772;2023-02-28T16:15:41;6.53;;;5.93;;
19664;SDS011;9980;51.020;7.772;2023-02-28T16:18:10;7.13;;;6.37;;
19664;SDS011;9980;51.020;7.772;2023-02-28T16:20:39;6.60;;;6.00;;
19664;SDS011;9980;51.020;7.772;2023-02-28T16:23:06;6.83;;;6.10;;
19664;SDS011;9980;51.020;7.772;2023-02-28T16:25:40;8.83;;;6.23;;
19664;SDS011;9980;51.020;7.772;2023-02-28T16:28:20;6.63;;;5.93;;
19664;SDS011;9980;51.020;7.772;2023-02-28T16:30:59;5.93;;;5.43;;
19664;SDS011;9980;51.020;7.772;2023-02-28T16:33:29;6.60;;;5.87;;
19664;SDS011;9980;51.020;7.772;2023-02-28T16:35:57;6.10;;;5.60;;
19664;SDS011;9980;51.020;7.772;2023-02-28T16:38:25;6.63;;;6.13;;
19664;SDS011;9980;51.020;7.772;2023-02-28T16:40:52;6.23;;;5.73;;
19664;SDS011;9980;51.020;7.772;2023-02-28T16:43:24;8.07;;;6.20;;
19664;SDS011;9980;51.020;7.772;2023-02-28T16:45:54;6.13;;;5.63;;
19664;SDS011;9980;51.020;7.772;2023-02-28T16:48:26;6.67;;;6.17;;
19664;SDS011;9980;51.020;7.772;2023-02-28T16:50:53;6.90;;;6.30;;
19664;SDS011;9980;51.020;7.772;2023-02-28T16:53:21;6.93;;;6.33;;
19664;SDS011;9980;51.020;7.772;2023-02-28T16:55:48;6.20;;;5.70;;
19664;SDS011;9980;51.020;7.772;2023-02-28T16:58:17;7.60;;;6.90;;
19664;SDS011;9980;51.020;7.772;2023-02-28T17:00:45;7.50;;;6.80;;
19664;SDS011;9980;51.020;7.772;2023-02-28T17:03:34;6.33;;;5.73;;
19664;SDS011;9980;51.020;7.772;2023-02-28T17:06:00;7.10;;;6.50;;
19664;SDS011;9980;51.020;7.772;2023-02-28T17:08:27;8.03;;;6.70;;
19664;SDS011;9980;51.020;7.772;2023-02-28T17:10:55;7.30;;;6.70;;
19664;SDS011;9980;51.020;7.772;2023-02-28T17:13:22;7.23;;;6.63;;
19664;SDS011;9980;51.020;7.772;2023-02-28T17:15:52;7.53;;;6.93;;
19664;SDS011;9980;51.020;7.772;2023-02-28T17:18:20;6.50;;;6.00;;
19664;SDS011;9980;51.020;7.772;2023-02-28T17:20:48;7.97;;;7.17;;
19664;SDS011;9980;51.020;7.772;2023-02-28T17:23:16;7.87;;;7.17;;
19664;SDS011;9980;51.020;7.772;2023-02-28T17:25:43;7.97;;;7.17;;
19664;SDS011;9980;51.020;7.772;2023-02-28T17:28:22;7.40;;;6.70;;
19664;SDS011;9980;51.020;7.772;2023-02-28T17:30:49;7.23;;;6.63;;
19664;SDS011;9980;51.020;7.772;2023-02-28T17:33:17;10.37;;;7.47;;
19664;SDS011;9980;51.020;7.772;2023-02-28T17:35:44;7.93;;;7.13;;
19664;SDS011;9980;51.020;7.772;2023-02-28T17:38:18;7.47;;;6.67;;
19664;SDS011;9980;51.020;7.772;2023-02-28T17:40:46;8.30;;;7.50;;
19664;SDS011;9980;51.020;7.772;2023-02-28T17:43:13;9.33;;;8.43;;
19664;SDS011;9980;51.020;7.772;2023-02-28T17:45:40;9.10;;;8.20;;
19664;SDS011;9980;51.020;7.772;2023-02-28T17:48:09;19.93;;;16.13;;
19664;SDS011;9980;51.020;7.772;2023-02-28T17:50:38;13.10;;;11.80;;
19664;SDS011;9980;51.020;7.772;2023-02-28T17:53:05;10.90;;;9.80;;
19664;SDS011;9980;51.020;7.772;2023-02-28T17:55:32;11.33;;;9.70;;
19664;SDS011;9980;51.020;7.772;2023-02-28T17:58:00;15.83;;;10.40;;
19664;SDS011;9980;51.020;7.772;2023-02-28T18:00:29;10.63;;;9.57;;
19664;SDS011;9980;51.020;7.772;2023-02-28T18:02:59;8.90;;;8.00;;